Time;durP1;ratioP1;P1;durP2;ratioP2;P2;SDS_P1;SDS_P2;PMS_P1;PMS_P2;Temp;Humidity;BMP_temperature;BMP_pressure;BME280_temperature;BME280_humidity;BME280_pressure;Samples;Min_cycle;Max_cycle;Signal;HPM_P1;HPM_P2
2021/12/19 07:14:23;;;;;;;5.50;4.00;;;;;;;;;;6205449;22;20024;-81
2021/12/19 11:35:18;;;;;;;5.17;4.67;;;;;;;;;;6217616;23;20012;-88
2021/12/19 11:37:49;;;;;;;5.65;4.30;;;;;;;;;;6245003;23;20016;-87
2021/12/19 11:40:18;;;;;;;6.72;6.00;;;;;;;;;;6247927;23;20016;-86
2021/12/19 11:42:44;;;;;;;7.57;6.30;;;;;;;;;;6247991;23;20363;-87
2021/12/19 11:48:16;;;;;;;3.95;3.55;;;;;;;;;;6251599;23;20313;-87
2021/12/19 11:50:50;;;;;;;3.92;3.50;;;;;;;;;;6248266;23;20083;-80
2021/12/19 11:53:15;;;;;;;3.88;3.55;;;;;;;;;;6246738;23;20489;-82
2021/12/19 11:55:46;;;;;;;3.33;3.08;;;;;;;;;;6221098;23;20012;-83
2021/12/19 11:58:12;;;;;;;4.35;3.58;;;;;;;;;;6247596;23;20000;-84
2021/12/19 12:00:50;;;;;;;3.67;3.38;;;;;;;;;;6246860;23;20469;-82
2021/12/19 12:03:15;;;;;;;3.30;3.00;;;;;;;;;;6248157;23;20452;-86
2021/12/19 12:05:53;;;;;;;3.30;2.97;;;;;;;;;;6248002;23;20004;-86
2021/12/19 12:08:20;;;;;;;3.72;3.42;;;;;;;;;;6221235;23;20051;-84
2021/12/19 12:10:49;;;;;;;3.53;3.22;;;;;;;;;;6247744;23;20003;-82
2021/12/19 12:13:20;;;;;;;2.53;2.33;;;;;;;;;;6248254;23;20020;-81
2021/12/19 12:15:46;;;;;;;2.72;2.53;;;;;;;;;;6247695;23;20669;-80
2021/12/19 12:18:35;;;;;;;2.45;2.25;;;;;;;;;;6248042;23;20004;-82
2021/12/19 12:21:28;;;;;;;2.47;2.15;;;;;;;;;;6225280;23;20012;-85
2021/12/19 12:24:02;;;;;;;2.55;2.00;;;;;;;;;;6248285;23;20157;-85
2021/12/19 12:26:48;;;;;;;2.85;2.40;;;;;;;;;;6247828;23;20467;-85
2021/12/19 12:29:14;;;;;;;4.82;2.33;;;;;;;;;;6248439;23;20000;-89
2021/12/19 12:31:43;;;;;;;1.90;1.73;;;;;;;;;;6222199;23;20087;-81
2021/12/19 12:34:11;;;;;;;3.28;2.00;;;;;;;;;;6247749;23;20065;-83
2021/12/19 12:36:38;;;;;;;2.47;1.70;;;;;;;;;;6247659;23;20004;-80
2021/12/19 12:39:09;;;;;;;1.98;1.77;;;;;;;;;;6247781;23;20305;-81
2021/12/19 12:41:52;;;;;;;1.85;1.60;;;;;;;;;;6247595;23;20435;-81
2021/12/19 12:44:22;;;;;;;1.80;1.70;;;;;;;;;;6220751;23;20323;-81
2021/12/19 12:46:49;;;;;;;1.85;1.70;;;;;;;;;;6247822;23;20075;-81
2021/12/19 12:49:18;;;;;;;4.63;3.42;;;;;;;;;;6247718;23;20304;-80
2021/12/19 12:51:45;;;;;;;2.38;1.83;;;;;;;;;;6247363;23;20427;-81
2021/12/19 12:54:20;;;;;;;2.13;1.70;;;;;;;;;;6248120;23;20004;-82
2021/12/19 12:56:54;;;;;;;2.00;1.80;;;;;;;;;;6247787;23;20004;-80
2021/12/19 12:59:25;;;;;;;1.48;1.38;;;;;;;;;;6247779;23;20015;-81
2021/12/19 13:02:06;;;;;;;1.73;1.55;;;;;;;;;;6247554;23;20034;-81
2021/12/19 13:04:32;;;;;;;6.68;3.13;;;;;;;;;;6220510;23;20008;-82
2021/12/19 13:06:58;;;;;;;26.17;10.73;;;;;;;;;;6247658;23;20000;-80
2021/12/19 13:09:28;;;;;;;2.13;1.92;;;;;;;;;;6247580;23;20004;-80
2021/12/19 13:12:21;;;;;;;2.35;2.05;;;;;;;;;;6247915;23;20008;-80
2021/12/19 13:14:47;;;;;;;4.18;3.47;;;;;;;;;;6231501;23;20007;-80
2021/12/19 13:17:19;;;;;;;24.02;15.23;;;;;;;;;;6220697;23;20087;-82
2021/12/19 13:19:48;;;;;;;5.60;4.40;;;;;;;;;;6220355;23;20008;-88
2021/12/19 13:22:51;;;;;;;2.78;2.47;;;;;;;;;;6220417;23;20008;-86
2021/12/19 13:25:22;;;;;;;4.85;3.97;;;;;;;;;;6220302;23;20429;-82
2021/12/19 13:27:49;;;;;;;21.45;14.70;;;;;;;;;;6247054;23;20050;-82
2021/12/19 13:30:32;;;;;;;4.93;3.42;;;;;;;;;;6247374;23;20434;-81
2021/12/19 13:33:00;;;;;;;4.82;3.35;;;;;;;;;;6247319;23;20004;-81
2021/12/19 13:35:36;;;;;;;5.18;3.70;;;;;;;;;;6247318;23;20084;-80
2021/12/19 13:38:11;;;;;;;15.30;13.38;;;;;;;;;;6247194;23;20004;-80
2021/12/19 13:41:01;;;;;;;44.17;39.33;;;;;;;;;;6246883;23;20006;-80
2021/12/19 13:43:31;;;;;;;5.60;4.68;;;;;;;;;;6247627;23;20008;-81
2021/12/19 13:46:08;;;;;;;4.88;4.40;;;;;;;;;;6246774;23;20360;-80
2021/12/19 13:48:48;;;;;;;3.90;2.72;;;;;;;;;;6246698;23;20470;-81
2021/12/19 13:51:19;;;;;;;5.10;2.72;;;;;;;;;;6246880;23;19996;-80
2021/12/19 13:53:48;;;;;;;3.92;2.90;;;;;;;;;;6247241;23;20004;-81
2021/12/19 13:56:18;;;;;;;3.28;2.60;;;;;;;;;;6247103;23;20004;-82
2021/12/19 13:58:46;;;;;;;3.10;2.40;;;;;;;;;;6246937;23;20004;-81
2021/12/19 14:01:24;;;;;;;4.05;2.40;;;;;;;;;;6219666;23;20082;-80
2021/12/19 14:03:54;;;;;;;3.08;2.53;;;;;;;;;;6246753;23;20004;-80
2021/12/19 14:06:30;;;;;;;3.45;2.47;;;;;;;;;;6219525;23;20075;-80
2021/12/19 18:14:54;;;;;;;5.63;3.75;;;;;;;;;;6219327;22;20035;-85
2021/12/19 18:17:19;;;;;;;7.25;5.45;;;;;;;;;;6219995;23;20075;-85
2021/12/19 18:19:45;;;;;;;9.55;5.70;;;;;;;;;;6248440;23;20439;-85
2021/12/19 18:22:12;;;;;;;10.98;7.07;;;;;;;;;;6220452;23;20000;-85
2021/12/19 18:24:37;;;;;;;10.68;6.75;;;;;;;;;;6220819;23;20507;-84
2021/12/19 18:27:03;;;;;;;9.75;6.75;;;;;;;;;;6221107;23;20000;-85
2021/12/19 18:29:34;;;;;;;14.07;8.00;;;;;;;;;;6220549;23;20004;-84
2021/12/19 18:32:00;;;;;;;10.10;6.93;;;;;;;;;;6220517;23;20038;-84
2021/12/19 18:34:31;;;;;;;9.88;6.13;;;;;;;;;;6220371;23;20000;-86
2021/12/19 18:36:59;;;;;;;11.48;6.38;;;;;;;;;;6221077;23;20009;-82
2021/12/19 18:39:29;;;;;;;9.68;6.40;;;;;;;;;;6220486;23;20039;-87
2021/12/19 18:44:28;;;;;;;11.93;8.07;;;;;;;;;;6252282;23;20143;-86
2021/12/19 18:47:35;;;;;;;8.25;6.63;;;;;;;;;;6220936;23;20004;-89
2021/12/19 18:50:11;;;;;;;10.38;6.13;;;;;;;;;;6243052;23;20073;-86
2021/12/19 18:57:32;;;;;;;13.50;9.85;;;;;;;;;;6257662;23;20367;-89
2021/12/19 18:59:58;;;;;;;11.57;7.20;;;;;;;;;;6222879;23;20016;-83
2021/12/19 19:02:33;;;;;;;21.40;15.50;;;;;;;;;;6221403;23;20000;-90
2021/12/19 19:05:07;;;;;;;28.80;19.25;;;;;;;;;;6247657;23;20049;-82
2021/12/19 19:07:33;;;;;;;12.95;8.02;;;;;;;;;;6221624;23;20005;-86
2021/12/19 19:10:03;;;;;;;32.50;16.77;;;;;;;;;;6247384;23;20000;-87
2021/12/19 19:12:31;;;;;;;56.65;31.10;;;;;;;;;;6222034;23;20038;-88
2021/12/19 19:14:57;;;;;;;71.38;36.20;;;;;;;;;;6246862;23;20418;-85
2021/12/19 19:17:23;;;;;;;339.88;148.57;;;;;;;;;;6246839;23;20408;-87
2021/12/19 19:19:49;;;;;;;84.05;35.88;;;;;;;;;;6246901;23;20416;-88
2021/12/19 19:22:15;;;;;;;78.07;33.08;;;;;;;;;;6221000;23;20016;-84
2021/12/19 19:24:41;;;;;;;38.63;17.83;;;;;;;;;;6220614;23;20098;-82
2021/12/19 19:27:07;;;;;;;38.58;34.30;;;;;;;;;;6246883;23;20419;-85
2021/12/19 19:29:32;;;;;;;26.20;16.40;;;;;;;;;;6247586;23;20023;-88
2021/12/19 19:31:58;;;;;;;17.98;10.65;;;;;;;;;;6220194;23;20411;-87
2021/12/19 19:34:23;;;;;;;13.27;8.82;;;;;;;;;;6220812;23;20012;-88
2021/12/19 19:36:52;;;;;;;14.77;12.98;;;;;;;;;;6220350;23;20007;-88
2021/12/19 19:48:49;;;;;;;9.43;5.72;;;;;;;;;;6247616;23;20060;-89
2021/12/19 19:50:18;;;;;;;7.60;4.50;;;;;;;;;;6248007;23;20046;-88
2021/12/19 19:52:44;;;;;;;8.57;6.15;;;;;;;;;;6247396;23;20054;-89
2021/12/19 19:55:10;;;;;;;8.02;5.90;;;;;;;;;;6220928;23;20004;-83
2021/12/19 19:57:36;;;;;;;7.93;4.85;;;;;;;;;;6218743;23;20063;-88
2021/12/19 20:00:04;;;;;;;6.93;4.53;;;;;;;;;;6248374;23;20356;-88
2021/12/19 20:02:32;;;;;;;6.53;4.15;;;;;;;;;;6248806;23;20125;-83
2021/12/19 20:04:57;;;;;;;6.45;3.85;;;;;;;;;;6221005;23;20015;-85
2021/12/19 20:07:24;;;;;;;5.85;4.15;;;;;;;;;;6247876;23;20004;-83
2021/12/19 20:09:52;;;;;;;6.82;4.30;;;;;;;;;;6221170;23;20441;-89
2021/12/19 20:12:18;;;;;;;6.55;4.35;;;;;;;;;;6221025;23;20042;-83
2021/12/19 20:14:43;;;;;;;5.85;4.38;;;;;;;;;;6219984;23;20316;-83
2021/12/19 20:17:14;;;;;;;10.88;5.75;;;;;;;;;;6247032;23;20016;-83
2021/12/19 20:19:41;;;;;;;4.60;3.88;;;;;;;;;;6221315;23;20053;-82
2021/12/19 20:22:07;;;;;;;5.55;3.65;;;;;;;;;;6248033;23;20049;-82
2021/12/19 20:24:33;;;;;;;5.22;4.20;;;;;;;;;;6221080;23;20014;-83
2021/12/19 20:27:01;;;;;;;4.82;4.25;;;;;;;;;;6221313;23;20450;-82
2021/12/19 20:29:27;;;;;;;12.15;10.90;;;;;;;;;;6221436;23;20070;-80
2021/12/19 20:31:53;;;;;;;6.63;5.15;;;;;;;;;;6220732;23;20000;-83
2021/12/19 20:34:22;;;;;;;5.10;4.32;;;;;;;;;;6221240;23;20004;-83
2021/12/19 20:36:49;;;;;;;5.10;3.78;;;;;;;;;;6220295;23;20013;-82
2021/12/19 20:39:16;;;;;;;5.82;3.30;;;;;;;;;;6219445;23;20043;-83
2021/12/19 20:41:46;;;;;;;3.97;3.20;;;;;;;;;;6220983;23;20007;-82
2021/12/19 20:44:13;;;;;;;4.30;3.90;;;;;;;;;;6247652;23;19997;-82
2021/12/19 20:46:43;;;;;;;5.35;3.40;;;;;;;;;;6220982;23;20011;-83
2021/12/19 20:49:12;;;;;;;5.60;3.72;;;;;;;;;;6220335;23;20450;-82
2021/12/19 20:51:39;;;;;;;4.90;3.78;;;;;;;;;;6247052;23;20003;-83
2021/12/19 20:54:07;;;;;;;5.53;3.85;;;;;;;;;;6220687;23;20085;-82
2021/12/19 20:56:34;;;;;;;4.28;3.65;;;;;;;;;;6220562;23;20004;-83
2021/12/19 20:59:00;;;;;;;4.90;3.63;;;;;;;;;;6220667;23;20091;-82
2021/12/19 21:01:26;;;;;;;4.35;3.53;;;;;;;;;;6247160;23;20012;-82
2021/12/19 21:03:52;;;;;;;7.22;3.50;;;;;;;;;;6247041;23;20105;-82
2021/12/19 21:06:18;;;;;;;5.88;3.50;;;;;;;;;;6220170;23;20034;-84
2021/12/19 21:08:48;;;;;;;5.75;4.10;;;;;;;;;;6220803;23;20083;-82
2021/12/19 21:11:16;;;;;;;5.75;4.00;;;;;;;;;;6221047;23;20015;-83
2021/12/19 21:19:24;;;;;;;4.00;3.15;;;;;;;;;;6186530;23;20012;-81
2021/12/19 21:21:51;;;;;;;4.53;3.08;;;;;;;;;;6221841;23;20320;-82
2021/12/19 21:24:17;;;;;;;4.50;3.05;;;;;;;;;;6224002;23;20012;-82
2021/12/19 21:26:42;;;;;;;4.63;2.80;;;;;;;;;;6248322;23;20327;-82
2021/12/19 21:29:08;;;;;;;4.18;3.10;;;;;;;;;;6247875;23;19996;-83
2021/12/19 21:31:34;;;;;;;6.05;3.00;;;;;;;;;;6223320;23;20004;-82
2021/12/19 21:34:00;;;;;;;4.82;2.80;;;;;;;;;;6248194;23;20073;-81
2021/12/19 21:39:12;;;;;;;4.55;3.38;;;;;;;;;;6248704;23;20454;-81
2021/12/19 21:41:37;;;;;;;3.67;2.78;;;;;;;;;;6248386;23;20012;-81
2021/12/19 21:44:05;;;;;;;4.57;2.92;;;;;;;;;;6247979;23;20026;-83
2021/12/19 21:46:36;;;;;;;5.15;3.47;;;;;;;;;;6247778;23;20455;-81
2021/12/19 21:49:03;;;;;;;5.03;3.60;;;;;;;;;;6220766;23;20038;-83
2021/12/19 21:51:28;;;;;;;6.80;5.22;;;;;;;;;;6220374;23;20011;-83
2021/12/19 21:53:54;;;;;;;7.60;4.90;;;;;;;;;;6247268;23;20328;-82
2021/12/19 21:56:19;;;;;;;8.40;4.63;;;;;;;;;;6221125;23;20011;-82
2021/12/19 21:58:46;;;;;;;8.10;4.90;;;;;;;;;;6219921;23;20004;-82
2021/12/19 22:01:16;;;;;;;7.18;4.80;;;;;;;;;;6220173;23;20008;-81
2021/12/19 22:03:41;;;;;;;6.80;4.32;;;;;;;;;;6220828;23;20013;-90
2021/12/19 22:06:07;;;;;;;7.70;4.65;;;;;;;;;;6222721;23;20066;-84
2021/12/19 22:08:33;;;;;;;5.85;3.85;;;;;;;;;;6247565;23;20026;-84
2021/12/19 22:11:07;;;;;;;6.55;3.30;;;;;;;;;;6221364;23;20008;-86
2021/12/19 22:15:25;;;;;;;4.90;3.50;;;;;;;;;;6220971;23;20327;-84
2021/12/19 22:16:20;;;;;;;5.97;4.50;;;;;;;;;;6246996;23;20012;-86
2021/12/19 22:18:45;;;;;;;6.47;4.47;;;;;;;;;;6222323;23;20008;-86
2021/12/19 22:21:11;;;;;;;5.95;4.32;;;;;;;;;;6248125;23;20004;-87
2021/12/19 22:23:36;;;;;;;5.55;3.92;;;;;;;;;;6220815;23;20450;-87
2021/12/19 22:26:03;;;;;;;5.63;3.80;;;;;;;;;;6221096;23;20134;-87
2021/12/19 22:28:28;;;;;;;7.70;4.25;;;;;;;;;;6220640;23;20004;-86
2021/12/19 22:30:54;;;;;;;4.80;3.60;;;;;;;;;;6220872;23;20014;-84
2021/12/19 22:33:19;;;;;;;5.93;4.00;;;;;;;;;;6220540;23;20482;-85
2021/12/19 22:35:45;;;;;;;4.40;2.60;;;;;;;;;;6247228;23;20011;-87
2021/12/19 22:38:11;;;;;;;4.20;3.22;;;;;;;;;;6247734;23;20000;-85
2021/12/19 22:40:37;;;;;;;4.35;3.03;;;;;;;;;;6220424;23;20016;-85
2021/12/19 22:43:04;;;;;;;2.08;1.73;;;;;;;;;;6220299;23;20477;-85
2021/12/19 22:45:30;;;;;;;2.53;2.17;;;;;;;;;;6246854;23;20000;-85
2021/12/19 22:47:55;;;;;;;2.45;2.05;;;;;;;;;;6220486;23;20054;-84
2021/12/19 22:50:21;;;;;;;2.35;1.90;;;;;;;;;;6220376;23;20015;-85
2021/12/19 22:52:47;;;;;;;2.97;2.28;;;;;;;;;;6247004;23;20011;-85
2021/12/19 22:55:13;;;;;;;3.03;2.50;;;;;;;;;;6247276;23;20000;-86
2021/12/19 22:57:38;;;;;;;6.93;4.40;;;;;;;;;;6219997;23;20423;-86
2021/12/19 23:00:19;;;;;;;5.63;3.92;;;;;;;;;;6246869;23;20050;-84
2021/12/19 23:02:48;;;;;;;5.15;3.60;;;;;;;;;;6246807;23;20024;-83
2021/12/19 23:05:15;;;;;;;4.20;3.25;;;;;;;;;;6220332;23;20412;-84
2021/12/19 23:07:40;;;;;;;5.68;3.63;;;;;;;;;;6220333;23;20489;-86
2021/12/19 23:10:07;;;;;;;2.75;1.92;;;;;;;;;;6220324;23;20083;-87
2021/12/19 23:12:32;;;;;;;2.92;2.17;;;;;;;;;;6246799;23;20003;-87
2021/12/19 23:15:00;;;;;;;4.30;2.80;;;;;;;;;;6220134;23;20049;-84
2021/12/19 23:20:11;;;;;;;2.53;2.17;;;;;;;;;;6247144;23;20019;-88
2021/12/19 23:22:36;;;;;;;3.60;2.40;;;;;;;;;;6246859;23;20046;-86
2021/12/19 23:25:02;;;;;;;2.53;2.28;;;;;;;;;;6247342;23;20000;-87
2021/12/19 23:27:28;;;;;;;1.90;1.67;;;;;;;;;;6220381;23;20008;-86
2021/12/19 23:29:53;;;;;;;4.55;2.88;;;;;;;;;;6220624;23;20474;-86
2021/12/19 23:32:20;;;;;;;4.97;2.88;;;;;;;;;;6220225;23;20438;-88
2021/12/19 23:34:46;;;;;;;4.05;2.90;;;;;;;;;;6221473;23;20004;-87
2021/12/19 23:37:22;;;;;;;4.68;3.58;;;;;;;;;;6222357;23;20099;-88
2021/12/19 23:45:21;;;;;;;4.50;3.20;;;;;;;;;;6202433;23;20000;-87
2021/12/19 23:47:52;;;;;;;4.90;3.05;;;;;;;;;;6222452;23;20004;-88
2021/12/19 23:50:19;;;;;;;4.05;3.03;;;;;;;;;;6221898;23;20065;-87
2021/12/19 23:52:47;;;;;;;6.93;3.10;;;;;;;;;;6222076;23;20004;-87
2021/12/19 23:55:14;;;;;;;5.25;3.17;;;;;;;;;;6222113;23;20467;-88
2021/12/19 23:57:40;;;;;;;5.90;3.50;;;;;;;;;;6248668;23;20004;-87
